Time;durP1;ratioP1;P1;durP2;ratioP2;P2;SDS_P1;SDS_P2;PMS_P1;PMS_P2;Temp;Humidity;BMP_temperature;BMP_pressure;BME280_temperature;BME280_humidity;BME280_pressure;Samples;Min_cycle;Max_cycle;Signal;HPM_P1;HPM_P2
2022/03/15 00:00:22;;;;;;;6.10;0.80;;;24.10;99.90;;;;;;5053303;28;20029;-68
2022/03/15 00:02:49;;;;;;;7.30;0.93;;;24.30;99.90;;;;;;5052702;28;20040;-68
2022/03/15 00:05:18;;;;;;;6.00;0.50;;;24.30;99.90;;;;;;5054875;28;20025;-68
2022/03/15 00:07:45;;;;;;;8.60;1.00;;;24.20;99.90;;;;;;5051376;28;20025;-68
2022/03/15 00:10:15;;;;;;;5.57;0.60;;;24.50;99.90;;;;;;5052644;28;20064;-68
2022/03/15 00:12:43;;;;;;;4.63;0.68;;;24.80;99.90;;;;;;5045614;28;20067;-68
2022/03/15 00:15:12;;;;;;;8.00;1.05;;;24.80;99.90;;;;;;5040358;28;20466;-68
2022/03/15 00:17:42;;;;;;;6.32;1.10;;;24.60;99.90;;;;;;5054876;28;20021;-68
2022/03/15 00:20:13;;;;;;;4.25;0.80;;;24.30;99.90;;;;;;5059236;28;20048;-68
2022/03/15 00:22:41;;;;;;;3.88;0.52;;;24.20;99.90;;;;;;5053951;28;20005;-67
2022/03/15 00:25:11;;;;;;;4.03;0.63;;;23.80;99.90;;;;;;5060280;28;20081;-67
2022/03/15 00:27:39;;;;;;;4.00;0.73;;;23.60;99.90;;;;;;5047756;28;20044;-67
2022/03/15 00:30:08;;;;;;;3.58;0.70;;;23.90;99.90;;;;;;5056135;28;20025;-67
2022/03/15 00:32:35;;;;;;;4.07;0.50;;;24.10;99.90;;;;;;5058675;28;20056;-67
2022/03/15 00:35:07;;;;;;;4.72;0.90;;;23.90;99.90;;;;;;5057266;28;20061;-67
2022/03/15 00:37:36;;;;;;;7.70;1.38;;;23.90;99.90;;;;;;5058957;28;20027;-67
2022/03/15 00:40:05;;;;;;;5.80;0.70;;;24.30;99.90;;;;;;5040765;28;20021;-67
2022/03/15 00:42:33;;;;;;;5.15;0.90;;;23.90;99.90;;;;;;5040564;28;20022;-67
2022/03/15 00:45:01;;;;;;;8.27;1.20;;;23.70;99.90;;;;;;5043898;28;20089;-67
2022/03/15 00:47:30;;;;;;;5.88;1.27;;;23.70;99.90;;;;;;5050288;28;20024;-67
2022/03/15 00:49:57;;;;;;;3.17;0.57;;;24.10;99.90;;;;;;5054982;28;20022;-67
2022/03/15 00:52:25;;;;;;;7.18;0.88;;;24.60;99.90;;;;;;5056873;28;20012;-67
2022/03/15 00:54:52;;;;;;;7.28;0.98;;;25.00;99.90;;;;;;5051927;28;20025;-67
2022/03/15 00:57:20;;;;;;;5.68;1.00;;;24.90;99.90;;;;;;5054150;28;20033;-67
2022/03/15 00:59:47;;;;;;;5.82;0.68;;;24.30;99.90;;;;;;5057260;28;20029;-67
2022/03/15 01:02:14;;;;;;;6.18;0.85;;;23.70;99.90;;;;;;5052522;28;20025;-66
2022/03/15 01:04:42;;;;;;;7.60;1.08;;;24.10;99.90;;;;;;5056110;28;20010;-67
2022/03/15 01:07:11;;;;;;;7.25;0.98;;;24.60;99.90;;;;;;5054060;28;20009;-67
2022/03/15 01:09:39;;;;;;;6.18;0.85;;;24.70;99.90;;;;;;5057871;28;20026;-67
2022/03/15 01:12:07;;;;;;;6.40;1.00;;;25.00;99.90;;;;;;5049784;28;20022;-67
2022/03/15 01:14:35;;;;;;;6.40;0.90;;;24.80;99.90;;;;;;5048046;28;20092;-67
2022/03/15 01:17:03;;;;;;;5.45;0.90;;;24.20;99.90;;;;;;5041650;28;20014;-67
2022/03/15 01:19:30;;;;;;;10.20;1.75;;;24.20;99.90;;;;;;5050734;28;20098;-67
2022/03/15 01:21:58;;;;;;;3.22;0.40;;;24.00;99.90;;;;;;5052158;28;20028;-67
2022/03/15 01:24:25;;;;;;;9.13;1.10;;;23.60;99.90;;;;;;5049892;28;20014;-67
2022/03/15 01:26:54;;;;;;;9.70;1.23;;;23.90;99.90;;;;;;5051927;28;20033;-67
2022/03/15 01:29:23;;;;;;;4.63;0.75;;;24.60;99.90;;;;;;5053327;28;20017;-67
2022/03/15 01:31:50;;;;;;;4.30;0.63;;;24.90;99.90;;;;;;5049619;28;20025;-67
2022/03/15 01:34:17;;;;;;;6.93;0.68;;;24.80;99.90;;;;;;5055420;28;20072;-67
2022/03/15 01:36:45;;;;;;;6.05;1.15;;;24.80;99.90;;;;;;5057310;28;20045;-67
2022/03/15 01:39:12;;;;;;;10.73;1.40;;;24.90;99.90;;;;;;5053057;28;20025;-67
2022/03/15 01:41:40;;;;;;;5.53;0.90;;;24.70;99.90;;;;;;5050467;28;20030;-67
2022/03/15 01:44:34;;;;;;;5.90;1.00;;;24.20;99.90;;;;;;5053591;28;20025;-68
2022/03/15 01:47:02;;;;;;;5.00;0.90;;;24.50;99.90;;;;;;5048455;28;20137;-67
2022/03/15 01:49:29;;;;;;;5.40;0.60;;;24.40;99.90;;;;;;5053583;28;20089;-67
2022/03/15 01:51:57;;;;;;;8.30;0.85;;;24.30;99.90;;;;;;5050131;28;20010;-67
2022/03/15 01:54:24;;;;;;;4.50;0.93;;;24.10;99.90;;;;;;5051430;28;20023;-67
2022/03/15 01:56:51;;;;;;;8.35;0.80;;;23.90;99.90;;;;;;5060546;22;20013;-80
2022/03/15 02:04:51;;;;;;;8.70;1.13;;;24.40;99.90;;;;;;5050720;28;20101;-67
2022/03/15 02:07:19;;;;;;;6.50;1.42;;;24.20;99.90;;;;;;5052289;28;20024;-67
2022/03/15 02:09:47;;;;;;;6.82;0.73;;;24.10;99.90;;;;;;5049342;28;20026;-67
2022/03/15 02:12:14;;;;;;;6.82;0.90;;;23.90;99.90;;;;;;5055505;28;20026;-67
2022/03/15 02:14:42;;;;;;;11.02;0.85;;;23.80;99.90;;;;;;5058107;28;20040;-67
2022/03/15 02:17:10;;;;;;;3.35;0.50;;;23.80;99.90;;;;;;5055544;28;20028;-67
2022/03/15 02:19:41;;;;;;;9.13;1.08;;;23.80;99.90;;;;;;5050446;28;20027;-67
2022/03/15 02:22:09;;;;;;;10.05;1.13;;;23.90;99.90;;;;;;5052816;28;20014;-67
2022/03/15 02:24:38;;;;;;;4.63;0.82;;;23.70;99.90;;;;;;5054579;28;20025;-67
2022/03/15 02:27:05;;;;;;;11.45;0.95;;;23.70;99.90;;;;;;5048300;28;20040;-67
2022/03/15 02:29:33;;;;;;;6.68;0.60;;;23.80;99.90;;;;;;5042594;28;20010;-67
2022/03/15 02:32:00;;;;;;;6.60;0.55;;;23.80;99.90;;;;;;5049173;28;20038;-67
2022/03/15 02:34:28;;;;;;;6.18;0.60;;;23.70;99.90;;;;;;5052722;28;20021;-67
2022/03/15 02:36:55;;;;;;;7.50;0.90;;;23.70;99.90;;;;;;5051218;28;20060;-67
2022/03/15 02:39:23;;;;;;;3.83;0.75;;;24.10;99.90;;;;;;5050218;28;20033;-67
2022/03/15 02:41:50;;;;;;;6.55;1.08;;;24.20;99.90;;;;;;5056275;28;20018;-67
2022/03/15 02:44:17;;;;;;;8.38;1.73;;;24.00;99.90;;;;;;5052927;28;20048;-67
2022/03/15 02:46:50;;;;;;;7.38;0.90;;;23.70;99.90;;;;;;5051539;28;20013;-67
2022/03/15 02:49:18;;;;;;;8.07;1.35;;;23.70;99.90;;;;;;5053246;28;20057;-67
2022/03/15 02:51:45;;;;;;;6.70;1.02;;;23.90;99.90;;;;;;5048808;28;20018;-67
2022/03/15 02:54:13;;;;;;;5.70;0.80;;;23.90;99.90;;;;;;5038017;28;20036;-67
2022/03/15 02:56:46;;;;;;;8.65;1.10;;;23.70;99.90;;;;;;5043367;28;20041;-67
2022/03/15 02:59:14;;;;;;;8.10;0.80;;;23.90;99.90;;;;;;5050500;28;20026;-67
2022/03/15 03:01:43;;;;;;;4.68;0.68;;;24.10;99.90;;;;;;5049910;28;20048;-67
2022/03/15 03:04:10;;;;;;;4.72;1.05;;;23.80;99.90;;;;;;5050201;28;20052;-67
2022/03/15 03:06:41;;;;;;;6.30;1.05;;;23.60;99.90;;;;;;5054004;28;20037;-67
2022/03/15 03:09:09;;;;;;;8.90;1.08;;;23.60;99.90;;;;;;5056263;28;20073;-67
2022/03/15 03:11:36;;;;;;;15.10;2.00;;;24.00;99.90;;;;;;5055779;28;20032;-67
2022/03/15 03:14:04;;;;;;;5.65;0.93;;;24.00;99.90;;;;;;5053734;28;20033;-67
2022/03/15 03:16:31;;;;;;;6.80;0.80;;;23.90;99.90;;;;;;5060665;28;20045;-67
2022/03/15 03:18:59;;;;;;;6.57;1.52;;;24.00;99.90;;;;;;5062174;28;20033;-67
2022/03/15 03:21:30;;;;;;;6.05;0.93;;;24.30;99.90;;;;;;5060276;28;20014;-67
2022/03/15 03:23:57;;;;;;;3.13;0.30;;;24.40;99.90;;;;;;5056987;28;20022;-67
2022/03/15 03:26:26;;;;;;;5.78;0.73;;;24.40;99.90;;;;;;5059789;28;20036;-67
2022/03/15 03:28:54;;;;;;;6.10;0.68;;;24.70;99.90;;;;;;5059627;28;20006;-64
2022/03/15 03:31:21;;;;;;;8.00;0.90;;;24.80;99.90;;;;;;5051929;28;20093;-65
2022/03/15 03:33:48;;;;;;;7.63;1.17;;;25.10;99.90;;;;;;5054030;28;20521;-64
2022/03/15 03:36:16;;;;;;;6.38;0.77;;;24.90;99.90;;;;;;5044431;28;20021;-64
2022/03/15 03:38:44;;;;;;;5.97;0.68;;;24.60;99.90;;;;;;5052221;28;20045;-64
2022/03/15 03:41:11;;;;;;;6.57;0.85;;;24.20;99.90;;;;;;5044107;28;20029;-64
2022/03/15 03:43:38;;;;;;;6.88;0.63;;;24.10;99.90;;;;;;5059803;28;20013;-64
2022/03/15 03:46:05;;;;;;;4.18;0.75;;;23.90;99.90;;;;;;5059098;28;20036;-65
2022/03/15 03:48:33;;;;;;;4.65;0.60;;;23.90;99.90;;;;;;5051724;28;20014;-64
2022/03/15 03:51:01;;;;;;;5.70;0.93;;;24.10;99.90;;;;;;5052819;28;20030;-64
2022/03/15 03:53:28;;;;;;;8.07;0.98;;;24.20;99.90;;;;;;5054741;28;20065;-64
2022/03/15 03:55:55;;;;;;;7.20;0.40;;;24.10;99.90;;;;;;5046308;28;20022;-63
2022/03/15 03:58:22;;;;;;;6.47;1.02;;;24.30;99.90;;;;;;5053556;28;20047;-64
2022/03/15 04:00:53;;;;;;;8.02;1.02;;;24.30;99.90;;;;;;5050137;28;20082;-65
2022/03/15 04:03:21;;;;;;;4.90;0.43;;;24.30;99.90;;;;;;5056492;28;20026;-64
2022/03/15 04:05:49;;;;;;;3.63;0.75;;;24.20;99.90;;;;;;5046118;28;20042;-64
2022/03/15 04:08:16;;;;;;;8.38;0.95;;;24.30;99.90;;;;;;5059220;28;20077;-65
2022/03/15 04:10:46;;;;;;;8.40;1.20;;;24.30;99.90;;;;;;5046985;28;20081;-64
2022/03/15 04:13:18;;;;;;;8.65;1.60;;;23.80;99.90;;;;;;5049668;28;20013;-64
2022/03/15 04:15:46;;;;;;;5.07;0.82;;;23.80;99.90;;;;;;5055747;28;20050;-64
2022/03/15 04:18:14;;;;;;;7.63;1.02;;;24.10;99.90;;;;;;5058831;28;20030;-64
2022/03/15 04:20:41;;;;;;;6.78;1.27;;;24.00;99.90;;;;;;5053661;28;20022;-64
2022/03/15 04:23:10;;;;;;;5.60;0.60;;;24.10;99.90;;;;;;5050060;28;20021;-64
2022/03/15 04:25:38;;;;;;;7.50;0.90;;;24.20;99.90;;;;;;5058451;28;20029;-64
2022/03/15 04:28:07;;;;;;;8.57;0.68;;;24.10;99.90;;;;;;5055165;28;20053;-64
2022/03/15 04:30:34;;;;;;;7.57;1.25;;;24.30;99.90;;;;;;5057474;28;20036;-64
2022/03/15 04:33:02;;;;;;;5.03;0.70;;;24.20;99.90;;;;;;5059684;28;20021;-64
2022/03/15 04:35:32;;;;;;;7.93;0.60;;;24.20;99.90;;;;;;5054569;28;20026;-64
2022/03/15 04:37:59;;;;;;;8.65;1.35;;;24.40;99.90;;;;;;5053335;28;20084;-64
2022/03/15 04:40:27;;;;;;;7.85;0.80;;;24.20;99.90;;;;;;5058446;28;20044;-64
2022/03/15 04:42:54;;;;;;;12.32;2.00;;;24.10;99.90;;;;;;5043928;28;20030;-64
2022/03/15 04:45:22;;;;;;;7.45;0.80;;;24.00;99.90;;;;;;5049009;28;20021;-64
2022/03/15 04:47:50;;;;;;;9.18;1.00;;;23.80;99.90;;;;;;5050698;28;20097;-64
2022/03/15 04:50:17;;;;;;;8.18;0.90;;;23.40;99.90;;;;;;5051990;28;20030;-64
2022/03/15 04:52:45;;;;;;;6.10;1.23;;;23.30;99.90;;;;;;5055447;28;20048;-64
2022/03/15 04:55:12;;;;;;;8.25;0.75;;;23.30;99.90;;;;;;5049977;28;20068;-64
2022/03/15 04:57:40;;;;;;;7.15;1.20;;;23.40;99.90;;;;;;5053572;28;20033;-64
2022/03/15 05:00:09;;;;;;;8.88;1.23;;;23.40;99.90;;;;;;5045971;28;20037;-64
2022/03/15 05:02:39;;;;;;;4.45;0.70;;;23.30;99.90;;;;;;5053688;28;20006;-64
2022/03/15 05:05:07;;;;;;;6.28;1.08;;;23.20;99.90;;;;;;5048882;28;20060;-64
2022/03/15 05:07:35;;;;;;;6.93;1.20;;;23.10;99.90;;;;;;5051880;28;20036;-64
2022/03/15 05:12:48;;;;;;;6.68;1.25;;;23.10;99.90;;;;;;5046412;28;20081;-63
2022/03/15 05:15:16;;;;;;;8.35;1.08;;;23.20;99.90;;;;;;5048973;28;20034;-64
2022/03/15 05:17:43;;;;;;;8.65;1.10;;;23.20;99.90;;;;;;5066187;28;20025;-64
2022/03/15 05:20:11;;;;;;;6.18;1.35;;;23.20;99.90;;;;;;5040092;28;20018;-64
2022/03/15 05:22:39;;;;;;;7.72;0.80;;;23.30;99.90;;;;;;5047287;28;20017;-64
2022/03/15 05:25:07;;;;;;;7.28;0.90;;;23.10;99.90;;;;;;5053479;28;20020;-63
2022/03/15 05:27:35;;;;;;;7.05;1.40;;;23.00;99.90;;;;;;5054689;28;20088;-64
2022/03/15 05:30:03;;;;;;;4.70;0.82;;;22.90;99.90;;;;;;5051935;28;20057;-64
2022/03/15 05:32:31;;;;;;;10.32;1.13;;;22.90;99.90;;;;;;5050860;28;20010;-63
2022/03/15 05:34:58;;;;;;;6.10;1.13;;;22.70;99.90;;;;;;5057368;28;20075;-63
2022/03/15 05:37:26;;;;;;;9.02;1.73;;;22.70;99.90;;;;;;5055334;28;20466;-63
2022/03/15 05:39:53;;;;;;;5.97;1.10;;;22.70;99.90;;;;;;5055753;28;20016;-63
2022/03/15 05:42:20;;;;;;;5.07;1.00;;;22.80;99.90;;;;;;5049992;28;20022;-63
2022/03/15 05:44:49;;;;;;;7.47;1.17;;;22.90;99.90;;;;;;5051732;28;20014;-63
2022/03/15 05:47:16;;;;;;;10.65;1.33;;;23.00;99.90;;;;;;5045043;28;20056;-63
2022/03/15 05:49:43;;;;;;;6.88;1.15;;;23.00;99.90;;;;;;5055057;28;20032;-62
2022/03/15 05:52:11;;;;;;;7.95;0.70;;;23.00;99.90;;;;;;5053736;28;20017;-62
2022/03/15 05:54:38;;;;;;;6.63;1.20;;;22.90;99.90;;;;;;5054081;28;20013;-62
2022/03/15 05:57:06;;;;;;;4.43;0.60;;;22.80;99.90;;;;;;5051442;28;20033;-62
2022/03/15 05:59:33;;;;;;;8.50;0.90;;;22.80;99.90;;;;;;5052325;28;20039;-62
2022/03/15 06:02:00;;;;;;;10.13;0.90;;;22.70;99.90;;;;;;5051284;28;20043;-62
2022/03/15 06:04:27;;;;;;;9.57;1.15;;;22.70;99.90;;;;;;5051839;28;20068;-63
2022/03/15 06:06:58;;;;;;;9.93;1.02;;;22.70;99.90;;;;;;5048125;28;20052;-62
2022/03/15 06:09:25;;;;;;;7.85;1.23;;;22.80;99.90;;;;;;5049292;28;20025;-63
2022/03/15 06:11:54;;;;;;;6.40;1.23;;;22.90;99.90;;;;;;5049329;28;20029;-63
2022/03/15 06:14:21;;;;;;;11.38;1.80;;;22.90;99.90;;;;;;5048962;28;20021;-63
2022/03/15 06:16:49;;;;;;;6.43;0.73;;;23.00;99.90;;;;;;5049758;28;20026;-63
2022/03/15 06:19:17;;;;;;;5.22;0.80;;;22.80;99.90;;;;;;5040876;28;20044;-63
2022/03/15 06:21:45;;;;;;;11.05;1.88;;;22.60;99.90;;;;;;5042616;28;20071;-63
2022/03/15 06:24:12;;;;;;;10.93;1.48;;;22.50;99.90;;;;;;5045362;28;20025;-63
2022/03/15 06:26:41;;;;;;;10.38;1.02;;;22.50;99.90;;;;;;5034714;28;20033;-63
2022/03/15 06:29:08;;;;;;;6.43;0.55;;;22.50;99.90;;;;;;5036564;28;20029;-63
2022/03/15 06:31:37;;;;;;;8.85;1.10;;;22.50;99.90;;;;;;5043807;28;20520;-63
2022/03/15 06:34:05;;;;;;;11.55;1.33;;;22.50;99.90;;;;;;5041354;28;20048;-63
2022/03/15 06:36:36;;;;;;;8.23;1.15;;;22.70;99.90;;;;;;5039893;28;20095;-62
2022/03/15 06:39:08;;;;;;;10.32;0.90;;;22.80;99.90;;;;;;5051028;28;20022;-63
2022/03/15 06:41:38;;;;;;;8.55;0.93;;;22.80;99.90;;;;;;5041219;28;20693;-64
2022/03/15 06:44:09;;;;;;;5.30;0.70;;;22.80;99.90;;;;;;5042116;28;20021;-62
2022/03/15 06:46:37;;;;;;;5.03;0.90;;;22.90;99.90;;;;;;5038560;28;20037;-63
2022/03/15 06:49:05;;;;;;;3.65;0.80;;;22.80;99.90;;;;;;5033835;28;20033;-63
2022/03/15 06:51:33;;;;;;;8.10;1.55;;;22.60;99.90;;;;;;5039492;28;20029;-63
2022/03/15 06:54:00;;;;;;;4.45;0.93;;;22.50;99.90;;;;;;5046566;28;20028;-64
2022/03/15 06:56:27;;;;;;;6.70;1.00;;;22.60;99.90;;;;;;5039272;28;20079;-66
2022/03/15 06:58:55;;;;;;;5.22;0.60;;;22.60;99.90;;;;;;5034709;28;20060;-67
2022/03/15 07:01:22;;;;;;;9.65;1.63;;;22.50;99.90;;;;;;5027053;28;20718;-67
2022/03/15 07:03:50;;;;;;;9.27;1.60;;;22.50;99.90;;;;;;5049803;28;20058;-67
2022/03/15 07:06:18;;;;;;;4.90;0.90;;;22.40;99.90;;;;;;5053575;28;20022;-67
2022/03/15 07:08:45;;;;;;;9.82;1.60;;;22.40;99.90;;;;;;5040728;28;20053;-68
2022/03/15 07:11:12;;;;;;;6.88;0.70;;;22.30;99.90;;;;;;5045585;28;20051;-68
2022/03/15 07:13:39;;;;;;;7.43;1.65;;;22.20;99.90;;;;;;5041407;28;20029;-68
2022/03/15 07:16:07;;;;;;;9.18;1.10;;;22.20;99.90;;;;;;5048795;28;20033;-68
2022/03/15 07:18:34;;;;;;;7.93;1.02;;;22.20;99.90;;;;;;5054453;28;20030;-68
2022/03/15 07:21:01;;;;;;;7.38;1.23;;;22.30;99.90;;;;;;5051473;28;20017;-68
2022/03/15 07:23:29;;;;;;;5.72;0.90;;;22.20;99.90;;;;;;5046475;28;20084;-68
2022/03/15 07:25:56;;;;;;;17.15;1.05;;;22.20;99.90;;;;;;5050175;28;20041;-67
2022/03/15 07:28:23;;;;;;;6.70;0.77;;;22.20;99.90;;;;;;5050126;28;20057;-68
2022/03/15 07:30:50;;;;;;;9.52;1.35;;;22.10;99.90;;;;;;5043954;28;20041;-68
2022/03/15 07:33:18;;;;;;;8.60;0.90;;;22.10;99.90;;;;;;5046559;28;20040;-68
2022/03/15 07:35:45;;;;;;;7.15;1.08;;;22.10;99.90;;;;;;5035321;28;20052;-69
2022/03/15 07:38:17;;;;;;;7.70;1.30;;;22.10;99.90;;;;;;5042602;28;20042;-68
2022/03/15 07:40:45;;;;;;;10.50;1.85;;;22.00;99.90;;;;;;5046593;28;20017;-68
2022/03/15 07:43:13;;;;;;;7.30;0.80;;;22.00;99.90;;;;;;5042651;28;20068;-68
2022/03/15 07:45:40;;;;;;;5.43;0.93;;;22.00;99.90;;;;;;5053057;28;20048;-68
2022/03/15 07:48:07;;;;;;;11.05;1.60;;;22.00;99.90;;;;;;5051888;28;20103;-68
2022/03/15 07:50:35;;;;;;;5.13;0.85;;;21.90;99.90;;;;;;5051315;28;20052;-67
2022/03/15 07:53:02;;;;;;;10.50;1.38;;;21.90;99.90;;;;;;5053985;28;20045;-67
2022/03/15 07:55:29;;;;;;;5.75;0.57;;;21.90;99.90;;;;;;5050826;28;20021;-67
2022/03/15 07:57:57;;;;;;;7.95;1.17;;;21.90;99.90;;;;;;5048306;28;20009;-67
2022/03/15 08:00:24;;;;;;;9.77;1.10;;;21.80;99.90;;;;;;5044659;28;20407;-67
2022/03/15 08:02:52;;;;;;;11.73;2.53;;;21.80;99.90;;;;;;5049537;28;20045;-67
2022/03/15 08:05:20;;;;;;;5.97;0.93;;;21.80;99.90;;;;;;5050935;28;20022;-67
2022/03/15 08:07:48;;;;;;;11.38;1.60;;;21.70;99.90;;;;;;5049262;28;20031;-68
2022/03/15 08:10:15;;;;;;;7.55;1.00;;;21.70;99.90;;;;;;5049063;28;20024;-67
2022/03/15 08:12:43;;;;;;;9.60;1.10;;;21.70;99.90;;;;;;5055670;28;20033;-67
2022/03/15 08:15:11;;;;;;;10.93;0.88;;;21.70;99.90;;;;;;5055452;28;20029;-67
2022/03/15 08:17:39;;;;;;;9.57;1.88;;;21.70;99.90;;;;;;5052451;28;20029;-69
2022/03/15 08:20:09;;;;;;;9.07;1.45;;;21.60;99.90;;;;;;5038967;28;20517;-68
2022/03/15 08:22:37;;;;;;;10.57;2.03;;;21.60;99.90;;;;;;5043359;28;20033;-68
2022/03/15 08:25:04;;;;;;;3.65;0.88;;;21.60;99.90;;;;;;5039705;28;20084;-68
2022/03/15 08:27:32;;;;;;;11.75;2.03;;;21.60;99.90;;;;;;5031715;28;20536;-67
2022/03/15 08:29:59;;;;;;;9.98;1.30;;;21.60;99.90;;;;;;5039469;28;20022;-68
2022/03/15 08:32:26;;;;;;;7.82;1.13;;;21.60;99.90;;;;;;5036566;28;20034;-68
2022/03/15 08:34:54;;;;;;;13.80;1.73;;;21.60;99.90;;;;;;5033782;28;20040;-66
2022/03/15 08:37:21;;;;;;;9.93;1.40;;;21.40;99.90;;;;;;5053203;28;20040;-66
2022/03/15 08:39:49;;;;;;;9.35;1.27;;;21.30;99.90;;;;;;5052808;28;20029;-67
2022/03/15 08:42:16;;;;;;;10.82;2.03;;;21.20;99.90;;;;;;5051544;28;20034;-67
2022/03/15 08:44:43;;;;;;;12.93;2.20;;;21.20;99.90;;;;;;5051996;28;20029;-67
2022/03/15 08:47:11;;;;;;;9.55;1.80;;;21.10;99.90;;;;;;5051955;28;20079;-66
2022/03/15 08:49:39;;;;;;;8.55;1.70;;;21.00;99.90;;;;;;5044488;28;20037;-67
2022/03/15 08:52:08;;;;;;;11.18;2.40;;;20.90;99.90;;;;;;5047145;28;20055;-66
2022/03/15 08:54:37;;;;;;;10.63;1.85;;;20.80;99.90;;;;;;5054721;28;20034;-66
2022/03/15 08:57:04;;;;;;;10.05;1.95;;;20.80;99.90;;;;;;5054423;28;20033;-66
2022/03/15 08:59:32;;;;;;;9.95;1.77;;;20.80;99.90;;;;;;5056654;28;20025;-66
2022/03/15 09:02:01;;;;;;;8.07;1.00;;;20.70;99.90;;;;;;5051688;28;20026;-65
2022/03/15 09:04:28;;;;;;;9.90;1.20;;;20.70;99.90;;;;;;5056572;28;20056;-64
2022/03/15 09:06:56;;;;;;;8.43;1.33;;;20.70;99.90;;;;;;5041435;28;20056;-64
2022/03/15 09:09:25;;;;;;;8.40;1.35;;;20.70;99.90;;;;;;5057392;28;20100;-64
2022/03/15 09:11:52;;;;;;;10.98;1.15;;;20.70;99.90;;;;;;5057871;28;20029;-64
2022/03/15 09:14:20;;;;;;;9.77;1.90;;;20.70;99.90;;;;;;5054576;28;20033;-64
2022/03/15 09:16:47;;;;;;;12.40;1.10;;;20.70;99.90;;;;;;5054800;28;20088;-64
2022/03/15 09:19:14;;;;;;;8.48;1.55;;;20.80;99.90;;;;;;5055707;28;20033;-64
2022/03/15 09:21:43;;;;;;;6.22;1.00;;;20.80;99.90;;;;;;5055719;28;20081;-64
2022/03/15 09:24:11;;;;;;;6.07;1.10;;;20.70;99.90;;;;;;5057506;28;19997;-64
2022/03/15 09:26:42;;;;;;;7.38;0.90;;;20.70;99.90;;;;;;5050244;28;20024;-65
2022/03/15 09:29:13;;;;;;;8.52;1.40;;;20.70;99.90;;;;;;5053597;28;20042;-64
2022/03/15 09:31:40;;;;;;;9.13;1.25;;;20.60;99.90;;;;;;5055090;28;20033;-65
2022/03/15 09:34:08;;;;;;;9.05;1.45;;;20.60;99.90;;;;;;5047439;28;20049;-64
2022/03/15 09:36:35;;;;;;;8.82;1.23;;;20.50;99.90;;;;;;5048902;28;20073;-64
2022/03/15 09:39:06;;;;;;;6.50;1.20;;;20.60;99.90;;;;;;5042986;28;20013;-65
2022/03/15 09:41:35;;;;;;;4.93;1.10;;;20.50;99.90;;;;;;5037942;28;20022;-64
2022/03/15 09:44:03;;;;;;;11.90;1.50;;;20.40;99.90;;;;;;5057638;28;20028;-64
2022/03/15 09:46:32;;;;;;;9.35;0.85;;;20.50;99.90;;;;;;5057204;28;20086;-64
2022/03/15 09:49:00;;;;;;;4.10;0.95;;;20.40;99.90;;;;;;5054142;28;20010;-65
2022/03/15 09:51:32;;;;;;;5.25;0.82;;;20.40;99.90;;;;;;5048596;28;20026;-64
2022/03/15 09:54:01;;;;;;;9.57;1.58;;;20.40;99.90;;;;;;5058386;28;20001;-64
2022/03/15 09:56:29;;;;;;;9.07;1.23;;;20.40;99.90;;;;;;5051257;28;20097;-64
2022/03/15 09:58:56;;;;;;;6.65;1.13;;;20.50;99.90;;;;;;5039035;28;20010;-64
2022/03/15 10:01:23;;;;;;;5.70;1.02;;;20.40;99.90;;;;;;5048763;28;20089;-64
2022/03/15 10:03:51;;;;;;;5.28;0.75;;;20.50;99.90;;;;;;5058224;28;20030;-64
2022/03/15 10:06:20;;;;;;;5.00;1.00;;;20.50;99.90;;;;;;5056077;28;20025;-64
2022/03/15 10:08:48;;;;;;;4.53;0.57;;;20.50;99.90;;;;;;5053807;28;20013;-64
2022/03/15 10:11:18;;;;;;;9.23;0.88;;;20.50;99.90;;;;;;5056999;28;20025;-64
2022/03/15 10:13:47;;;;;;;6.00;0.82;;;20.60;99.90;;;;;;5057025;28;20016;-64
2022/03/15 10:16:15;;;;;;;4.95;1.05;;;20.60;99.90;;;;;;5055973;28;20025;-65
2022/03/15 10:19:02;;;;;;;5.90;0.95;;;20.60;99.90;;;;;;5056697;28;20030;-65
2022/03/15 10:21:44;;;;;;;9.65;1.77;;;20.60;99.90;;;;;;5050616;28;20009;-65
2022/03/15 10:24:23;;;;;;;7.93;1.27;;;20.50;99.90;;;;;;5055624;28;20029;-65
2022/03/15 10:26:52;;;;;;;5.10;0.60;;;20.40;99.90;;;;;;5054818;28;20012;-65
2022/03/15 10:29:57;;;;;;;5.97;1.02;;;20.40;99.90;;;;;;5052468;28;20077;-65
2022/03/15 10:32:26;;;;;;;4.47;0.90;;;20.30;99.90;;;;;;5055572;28;20097;-65
2022/03/15 10:35:04;;;;;;;8.15;0.80;;;20.20;99.90;;;;;;5056590;28;20036;-65
2022/03/15 10:37:37;;;;;;;6.03;0.88;;;20.20;99.90;;;;;;5055680;28;20049;-65
2022/03/15 10:40:05;;;;;;;2.80;0.40;;;20.30;99.90;;;;;;5056582;28;20009;-65
2022/03/15 10:42:37;;;;;;;4.43;0.65;;;20.20;99.90;;;;;;5056566;28;20029;-65
2022/03/15 10:45:15;;;;;;;5.50;0.88;;;20.30;99.90;;;;;;5042169;28;20030;-66
2022/03/15 10:47:56;;;;;;;3.70;0.50;;;20.20;99.90;;;;;;5054951;28;20034;-65
2022/03/15 10:50:24;;;;;;;7.25;1.05;;;20.20;99.90;;;;;;5069190;28;20021;-65
2022/03/15 10:52:53;;;;;;;7.65;0.70;;;20.20;99.90;;;;;;5055487;28;20040;-65
2022/03/15 10:55:29;;;;;;;5.28;0.82;;;20.10;99.90;;;;;;5056958;28;20089;-65
2022/03/15 10:57:59;;;;;;;4.35;0.73;;;20.10;99.90;;;;;;5044402;28;20128;-65
2022/03/15 11:00:29;;;;;;;2.30;0.60;;;20.00;99.90;;;;;;5053571;28;20044;-65
2022/03/15 11:03:19;;;;;;;;;;;;;;;;;;;;;
2022/03/15 11:05:50;;;;;;;6.55;1.38;;;19.80;99.90;;;;;;5042569;28;20052;-67
2022/03/15 11:08:20;;;;;;;3.90;0.75;;;19.70;99.90;;;;;;5049637;28;20048;-67
2022/03/15 11:10:51;;;;;;;3.70;0.38;;;19.70;99.90;;;;;;5023325;28;20037;-68
2022/03/15 11:13:30;;;;;;;2.35;0.40;;;19.60;99.90;;;;;;5050060;28;20195;-67
2022/03/15 11:15:58;;;;;;;1.85;0.35;;;19.50;99.90;;;;;;5044633;28;20021;-68
2022/03/15 11:18:32;;;;;;;2.75;0.30;;;19.30;99.90;;;;;;5044087;28;20036;-68
2022/03/15 11:21:02;;;;;;;3.83;0.60;;;19.20;99.90;;;;;;5047795;28;20021;-68
2022/03/15 11:23:33;;;;;;;2.67;0.40;;;19.20;99.90;;;;;;5044805;28;20041;-67
2022/03/15 11:26:06;;;;;;;3.70;0.40;;;19.30;99.90;;;;;;5049381;28;20037;-67
2022/03/15 11:28:40;;;;;;;5.88;0.70;;;19.20;99.90;;;;;;5050442;28;20022;-68
2022/03/15 11:31:08;;;;;;;2.75;0.88;;;19.10;99.90;;;;;;5049391;28;20029;-67
2022/03/15 11:33:38;;;;;;;4.70;0.70;;;19.20;99.90;;;;;;5049086;28;20026;-68
2022/03/15 11:36:06;;;;;;;7.80;0.60;;;19.10;99.90;;;;;;5046798;28;20038;-68
2022/03/15 11:38:34;;;;;;;2.63;0.40;;;19.10;99.90;;;;;;5047109;28;20067;-68
2022/03/15 11:41:01;;;;;;;2.67;0.45;;;19.10;99.90;;;;;;5046666;28;20099;-68
2022/03/15 11:44:00;;;;;;;2.60;0.60;;;19.10;99.90;;;;;;5051680;28;20032;-68
2022/03/15 11:46:45;;;;;;;5.10;0.77;;;19.20;99.90;;;;;;5052105;28;20044;-67
2022/03/15 11:49:28;;;;;;;3.13;0.47;;;19.20;99.90;;;;;;5053714;28;20520;-67
2022/03/15 11:52:28;;;;;;;5.75;0.90;;;19.30;99.90;;;;;;5059452;28;20022;-68
2022/03/15 11:55:18;;;;;;;9.40;1.20;;;19.30;99.90;;;;;;5023801;28;20033;-67
2022/03/15 11:58:03;;;;;;;5.85;0.93;;;19.30;99.90;;;;;;5036403;28;20048;-68
2022/03/15 12:00:50;;;;;;;10.63;1.58;;;19.30;99.90;;;;;;5053571;28;20077;-66
2022/03/15 12:03:23;;;;;;;6.70;1.85;;;19.40;99.90;;;;;;5052874;28;20104;-66
2022/03/15 12:05:52;;;;;;;5.80;0.75;;;19.40;99.90;;;;;;5048558;28;20060;-67
2022/03/15 12:08:21;;;;;;;7.28;1.10;;;19.40;99.90;;;;;;5048511;28;20052;-66
2022/03/15 12:10:51;;;;;;;9.80;1.70;;;19.40;99.90;;;;;;5051718;28;20203;-67
2022/03/15 12:13:20;;;;;;;11.90;1.58;;;19.40;99.90;;;;;;5051709;28;20021;-67
2022/03/15 12:15:50;;;;;;;7.40;1.20;;;19.40;99.90;;;;;;5047478;28;20084;-66
2022/03/15 12:21:04;;;;;;;10.68;1.23;;;19.40;99.90;;;;;;5050299;28;20037;-67
2022/03/15 12:23:48;;;;;;;8.13;1.02;;;19.40;99.90;;;;;;5049327;28;20026;-67
2022/03/15 12:26:25;;;;;;;7.70;1.13;;;19.50;99.90;;;;;;5048805;28;20092;-67
2022/03/15 12:29:13;;;;;;;7.82;1.42;;;19.50;99.90;;;;;;5045531;28;20034;-66
2022/03/15 12:31:48;;;;;;;9.20;1.20;;;19.40;99.90;;;;;;5050645;28;20089;-67
2022/03/15 12:34:17;;;;;;;9.60;1.33;;;19.40;99.90;;;;;;5063572;28;20022;-66
2022/03/15 12:36:49;;;;;;;10.05;2.33;;;19.40;99.90;;;;;;5050295;28;20017;-66
2022/03/15 12:39:22;;;;;;;5.57;0.95;;;19.40;99.90;;;;;;5051239;28;20036;-66
2022/03/15 12:42:03;;;;;;;11.73;1.70;;;19.50;99.90;;;;;;5045653;28;20081;-66
2022/03/15 12:44:50;;;;;;;7.78;1.20;;;19.50;99.90;;;;;;5050620;28;20021;-66
2022/03/15 12:47:22;;;;;;;8.43;1.75;;;19.50;99.90;;;;;;5049703;28;20036;-66
2022/03/15 12:50:12;;;;;;;7.93;2.03;;;19.40;99.90;;;;;;5051441;28;20029;-66
2022/03/15 12:52:51;;;;;;;5.38;0.90;;;19.40;99.90;;;;;;5050066;28;20025;-66
2022/03/15 12:55:23;;;;;;;7.13;1.00;;;19.40;99.90;;;;;;5052062;28;20052;-66
2022/03/15 12:58:00;;;;;;;2.80;0.68;;;19.30;99.90;;;;;;5047426;28;20033;-67
2022/03/15 13:00:32;;;;;;;5.70;0.70;;;19.30;99.90;;;;;;5049540;28;20068;-66
2022/03/15 13:03:00;;;;;;;3.22;0.68;;;19.30;99.90;;;;;;5046075;28;20116;-66
2022/03/15 13:05:30;;;;;;;6.38;0.80;;;19.40;99.90;;;;;;5045311;28;20041;-66
2022/03/15 13:08:00;;;;;;;6.40;0.77;;;19.30;99.90;;;;;;5033150;28;20034;-67